Time;durP1;ratioP1;P1;durP2;ratioP2;P2;SDS_P1;SDS_P2;PMS_P1;PMS_P2;Temp;Humidity;BMP_temperature;BMP_pressure;BME280_temperature;BME280_humidity;BME280_pressure;Samples;Min_cycle;Max_cycle;Signal;HPM_P1;HPM_P2
2022/08/03 00:00:40;;;;;;;0.00;0.00;;;;;;;;;;5076050;28;20460;-64
2022/08/03 00:03:08;;;;;;;0.00;0.00;;;;;;;;;;5094054;28;20242;-64
2022/08/03 00:05:34;;;;;;;0.00;0.00;;;;;;;;;;5075924;28;20250;-64
2022/08/03 00:08:00;;;;;;;0.00;0.00;;;;;;;;;;5094218;28;20397;-65
2022/08/03 00:10:27;;;;;;;0.00;0.00;;;;;;;;;;5074813;28;20353;-64
2022/08/03 00:12:53;;;;;;;0.00;0.00;;;;;;;;;;5094838;28;20192;-64
2022/08/03 00:15:20;;;;;;;0.00;0.00;;;;;;;;;;5073951;28;20203;-63
2022/08/03 00:17:46;;;;;;;0.00;0.00;;;;;;;;;;5096057;28;20188;-65
2022/08/03 00:20:14;;;;;;;0.00;0.00;;;;;;;;;;5072365;28;20298;-65
2022/08/03 00:22:40;;;;;;;0.10;0.10;;;;;;;;;;5096898;28;20507;-63
2022/08/03 00:25:07;;;;;;;0.10;0.10;;;;;;;;;;5072160;28;20397;-64
2022/08/03 00:27:33;;;;;;;0.00;0.00;;;;;;;;;;5097457;28;20230;-64
2022/08/03 00:30:00;;;;;;;0.00;0.00;;;;;;;;;;5081767;28;20235;-64
2022/08/03 00:32:26;;;;;;;0.00;0.00;;;;;;;;;;5088034;28;20243;-65
2022/08/03 00:34:52;;;;;;;0.00;0.00;;;;;;;;;;5085843;28;20253;-65
2022/08/03 00:37:20;;;;;;;0.00;0.00;;;;;;;;;;5091437;28;20302;-64
2022/08/03 00:39:46;;;;;;;0.00;0.00;;;;;;;;;;5085686;28;20199;-63
2022/08/03 00:42:13;;;;;;;0.00;0.00;;;;;;;;;;5091284;28;20246;-64
2022/08/03 00:44:39;;;;;;;0.00;0.00;;;;;;;;;;5085324;28;20231;-64
2022/08/03 00:47:06;;;;;;;0.00;0.00;;;;;;;;;;5090849;28;20235;-64
2022/08/03 00:49:32;;;;;;;0.00;0.00;;;;;;;;;;5085403;28;20214;-64
2022/08/03 00:51:59;;;;;;;0.00;0.00;;;;;;;;;;5090063;28;20249;-65
2022/08/03 00:54:27;;;;;;;0.00;0.00;;;;;;;;;;5086371;28;20233;-65
2022/08/03 00:56:54;;;;;;;0.00;0.00;;;;;;;;;;5089282;28;20423;-64
2022/08/03 00:59:21;;;;;;;0.00;0.00;;;;;;;;;;5086598;28;20274;-64
2022/08/03 01:01:47;;;;;;;0.00;0.00;;;;;;;;;;5088413;28;20476;-64
2022/08/03 01:04:13;;;;;;;0.00;0.00;;;;;;;;;;5087598;28;20305;-65
2022/08/03 01:06:43;;;;;;;0.00;0.00;;;;;;;;;;5087413;28;20243;-65
2022/08/03 01:09:12;;;;;;;0.00;0.00;;;;;;;;;;5088344;28;20511;-65
2022/08/03 01:11:44;;;;;;;0.00;0.00;;;;;;;;;;5087048;28;20238;-64
2022/08/03 01:14:13;;;;;;;0.00;0.00;;;;;;;;;;5087878;28;20263;-64
2022/08/03 01:16:44;;;;;;;0.10;0.10;;;;;;;;;;5086974;28;20242;-65
2022/08/03 01:19:19;;;;;;;0.00;0.00;;;;;;;;;;5087947;28;20235;-65
2022/08/03 01:21:54;;;;;;;0.00;0.00;;;;;;;;;;5087953;28;20340;-65
2022/08/03 01:24:27;;;;;;;0.00;0.00;;;;;;;;;;5086742;28;20262;-64
2022/08/03 01:27:03;;;;;;;0.00;0.00;;;;;;;;;;5088881;28;20238;-65
2022/08/03 01:29:43;;;;;;;0.00;0.00;;;;;;;;;;5085416;28;20191;-64
2022/08/03 01:32:12;;;;;;;0.10;0.10;;;;;;;;;;5090258;28;20254;-64
2022/08/03 01:34:41;;;;;;;0.10;0.10;;;;;;;;;;5084574;28;20210;-65
2022/08/03 01:37:09;;;;;;;0.00;0.00;;;;;;;;;;5090030;28;20241;-66
2022/08/03 01:39:36;;;;;;;0.00;0.00;;;;;;;;;;5084446;28;20207;-64
2022/08/03 01:42:05;;;;;;;0.00;0.00;;;;;;;;;;5089829;28;20247;-65
2022/08/03 01:44:34;;;;;;;0.00;0.00;;;;;;;;;;5084698;28;20427;-65
2022/08/03 01:47:02;;;;;;;0.00;0.00;;;;;;;;;;5089151;28;20301;-64
2022/08/03 01:49:30;;;;;;;0.00;0.00;;;;;;;;;;5084914;28;20203;-64
2022/08/03 01:51:57;;;;;;;0.00;0.00;;;;;;;;;;5088411;28;20245;-64
2022/08/03 01:54:23;;;;;;;0.00;0.00;;;;;;;;;;5085710;28;20273;-64
2022/08/03 01:56:51;;;;;;;0.00;0.00;;;;;;;;;;5087996;28;20442;-65
2022/08/03 01:59:18;;;;;;;0.10;0.10;;;;;;;;;;5085922;28;20285;-64
2022/08/03 02:01:46;;;;;;;0.00;0.00;;;;;;;;;;5086960;28;20457;-66
2022/08/03 02:04:14;;;;;;;0.00;0.00;;;;;;;;;;5086514;28;20204;-65
2022/08/03 02:06:41;;;;;;;0.00;0.00;;;;;;;;;;5086160;28;20314;-65
2022/08/03 02:09:08;;;;;;;0.00;0.00;;;;;;;;;;5086933;28;20211;-64
2022/08/03 02:11:35;;;;;;;0.10;0.10;;;;;;;;;;5085120;28;20281;-65
2022/08/03 02:14:03;;;;;;;0.00;0.00;;;;;;;;;;5087891;28;20211;-66
2022/08/03 02:16:31;;;;;;;0.00;0.00;;;;;;;;;;5084633;28;20373;-64
2022/08/03 02:18:58;;;;;;;0.00;0.00;;;;;;;;;;5088489;28;20472;-65
2022/08/03 02:21:26;;;;;;;0.00;0.00;;;;;;;;;;5083885;28;20537;-66
2022/08/03 02:23:52;;;;;;;0.00;0.00;;;;;;;;;;5089039;28;20397;-64
2022/08/03 02:26:20;;;;;;;0.00;0.00;;;;;;;;;;5083125;28;20238;-65
2022/08/03 02:28:48;;;;;;;0.00;0.00;;;;;;;;;;5089447;28;20275;-65
2022/08/03 02:31:16;;;;;;;0.00;0.00;;;;;;;;;;5082626;28;20320;-64
2022/08/03 02:33:44;;;;;;;0.00;0.00;;;;;;;;;;5090093;28;20274;-64
2022/08/03 02:36:11;;;;;;;0.00;0.00;;;;;;;;;;5081771;28;20305;-64
2022/08/03 02:38:39;;;;;;;0.00;0.00;;;;;;;;;;5090514;28;20368;-65
2022/08/03 02:41:08;;;;;;;0.00;0.00;;;;;;;;;;5081055;28;20245;-65
2022/08/03 02:43:35;;;;;;;0.00;0.00;;;;;;;;;;5090999;28;20231;-65
2022/08/03 02:46:02;;;;;;;0.00;0.00;;;;;;;;;;5080602;28;20240;-65
2022/08/03 02:48:29;;;;;;;0.00;0.00;;;;;;;;;;5091693;28;20506;-65
2022/08/03 02:50:56;;;;;;;0.00;0.00;;;;;;;;;;5079748;28;20235;-66
2022/08/03 02:53:23;;;;;;;0.00;0.00;;;;;;;;;;5092025;28;20286;-66
2022/08/03 02:55:52;;;;;;;0.00;0.00;;;;;;;;;;5078298;28;20239;-65
2022/08/03 02:58:20;;;;;;;0.00;0.00;;;;;;;;;;5092231;28;20258;-65
2022/08/03 03:00:46;;;;;;;0.00;0.00;;;;;;;;;;5078137;28;20320;-65
2022/08/03 03:03:13;;;;;;;0.00;0.00;;;;;;;;;;5092947;28;20204;-66
2022/08/03 03:05:40;;;;;;;0.03;0.03;;;;;;;;;;5077015;28;20244;-64
2022/08/03 03:08:06;;;;;;;0.00;0.00;;;;;;;;;;5093423;28;20199;-64
2022/08/03 03:10:33;;;;;;;0.00;0.00;;;;;;;;;;5076378;28;20440;-64
2022/08/03 03:13:01;;;;;;;0.00;0.00;;;;;;;;;;5094766;28;20203;-65
2022/08/03 03:15:28;;;;;;;0.00;0.00;;;;;;;;;;5075328;28;20592;-65
2022/08/03 03:17:54;;;;;;;0.00;0.00;;;;;;;;;;5095370;28;20278;-65
2022/08/03 03:20:21;;;;;;;0.00;0.00;;;;;;;;;;5074753;28;20422;-65
2022/08/03 03:22:49;;;;;;;0.10;0.10;;;;;;;;;;5096428;28;20380;-65
2022/08/03 03:25:15;;;;;;;0.00;0.00;;;;;;;;;;5073939;28;20275;-65
2022/08/03 03:27:42;;;;;;;0.00;0.00;;;;;;;;;;5097228;28;20510;-65
2022/08/03 03:30:10;;;;;;;0.00;0.00;;;;;;;;;;5073153;28;20273;-65
2022/08/03 03:32:38;;;;;;;0.10;0.10;;;;;;;;;;5097596;28;20202;-65
2022/08/03 03:35:05;;;;;;;0.00;0.00;;;;;;;;;;5082628;28;20206;-65
2022/08/03 03:37:31;;;;;;;0.00;0.00;;;;;;;;;;5091181;28;20206;-65
2022/08/03 03:39:58;;;;;;;0.05;0.05;;;;;;;;;;5103024;28;20213;-64
2022/08/03 03:42:25;;;;;;;0.00;0.00;;;;;;;;;;5088990;28;20258;-65
2022/08/03 03:44:51;;;;;;;0.00;0.00;;;;;;;;;;5082732;28;20274;-66
2022/08/03 03:47:19;;;;;;;0.00;0.00;;;;;;;;;;5087912;28;20244;-65
2022/08/03 03:49:46;;;;;;;0.10;0.10;;;;;;;;;;5082352;28;20282;-65
2022/08/03 03:52:12;;;;;;;0.00;0.00;;;;;;;;;;5087905;28;20305;-65
2022/08/03 03:54:39;;;;;;;0.00;0.00;;;;;;;;;;5082574;28;20210;-65
2022/08/03 03:57:05;;;;;;;0.00;0.00;;;;;;;;;;5086273;28;20257;-66
2022/08/03 03:59:32;;;;;;;0.00;0.00;;;;;;;;;;5083581;28;20227;-64
2022/08/03 04:01:58;;;;;;;0.10;0.10;;;;;;;;;;5085543;28;20458;-66
2022/08/03 04:12:39;;;;;;;0.00;0.00;;;;;;;;;;5074686;28;20545;-65
2022/08/03 04:15:06;;;;;;;0.00;0.00;;;;;;;;;;5081565;28;20210;-65
2022/08/03 04:17:32;;;;;;;0.00;0.00;;;;;;;;;;5101674;28;20207;-64
2022/08/03 04:20:01;;;;;;;0.00;0.00;;;;;;;;;;5086152;28;20454;-65
2022/08/03 04:22:30;;;;;;;0.00;0.00;;;;;;;;;;5091258;28;20246;-65
2022/08/03 04:24:58;;;;;;;0.00;0.00;;;;;;;;;;5085824;28;20254;-65
2022/08/03 04:27:27;;;;;;;0.00;0.00;;;;;;;;;;5091221;28;20481;-65
2022/08/03 04:29:54;;;;;;;0.00;0.00;;;;;;;;;;5086086;28;20225;-65
2022/08/03 04:32:22;;;;;;;0.00;0.00;;;;;;;;;;5091420;28;20498;-65
2022/08/03 04:34:49;;;;;;;0.00;0.00;;;;;;;;;;5085737;28;20210;-65
2022/08/03 04:37:21;;;;;;;0.00;0.00;;;;;;;;;;5091158;28;20304;-65
2022/08/03 04:39:49;;;;;;;0.00;0.00;;;;;;;;;;5085957;28;20398;-65
2022/08/03 04:42:16;;;;;;;0.00;0.00;;;;;;;;;;5091226;28;20248;-65
2022/08/03 04:44:44;;;;;;;0.00;0.00;;;;;;;;;;5085732;28;20213;-65
2022/08/03 04:47:10;;;;;;;0.00;0.00;;;;;;;;;;5091045;28;20385;-65
2022/08/03 04:49:37;;;;;;;0.00;0.00;;;;;;;;;;5085828;28;20234;-65
2022/08/03 04:52:04;;;;;;;0.00;0.00;;;;;;;;;;5090456;28;20248;-65
2022/08/03 04:54:38;;;;;;;0.00;0.00;;;;;;;;;;5086082;28;20230;-65
2022/08/03 04:57:05;;;;;;;0.00;0.00;;;;;;;;;;5090785;28;20242;-65
2022/08/03 04:59:31;;;;;;;0.00;0.00;;;;;;;;;;5085290;28;20234;-65
2022/08/03 05:01:57;;;;;;;0.00;0.00;;;;;;;;;;5089560;28;20304;-65
2022/08/03 05:04:24;;;;;;;0.00;0.00;;;;;;;;;;5086728;28;20210;-65
2022/08/03 05:06:50;;;;;;;0.00;0.00;;;;;;;;;;5088567;28;20252;-66
2022/08/03 05:09:16;;;;;;;0.00;0.00;;;;;;;;;;5087402;28;20270;-65
2022/08/03 05:11:44;;;;;;;0.00;0.00;;;;;;;;;;5087693;28;20277;-65
2022/08/03 05:14:10;;;;;;;0.00;0.00;;;;;;;;;;5088100;28;20270;-66
2022/08/03 05:16:37;;;;;;;0.00;0.00;;;;;;;;;;5086729;28;20380;-65
2022/08/03 05:19:03;;;;;;;0.00;0.00;;;;;;;;;;5088087;28;20235;-65
2022/08/03 05:21:30;;;;;;;0.00;0.00;;;;;;;;;;5085774;28;20265;-64
2022/08/03 05:23:56;;;;;;;0.00;0.00;;;;;;;;;;5090197;28;20242;-66
2022/08/03 05:26:22;;;;;;;0.10;0.10;;;;;;;;;;5084852;28;20342;-65
2022/08/03 05:28:51;;;;;;;0.00;0.00;;;;;;;;;;5090782;28;20282;-65
2022/08/03 05:31:17;;;;;;;0.00;0.00;;;;;;;;;;5084229;28;20303;-65
2022/08/03 05:33:44;;;;;;;0.00;0.00;;;;;;;;;;5090812;28;20329;-65
2022/08/03 05:36:10;;;;;;;0.00;0.00;;;;;;;;;;5082854;28;20268;-65
2022/08/03 05:38:36;;;;;;;0.00;0.00;;;;;;;;;;5091555;28;20227;-65
2022/08/03 05:41:03;;;;;;;0.00;0.00;;;;;;;;;;5081888;28;20258;-65
2022/08/03 05:43:30;;;;;;;0.00;0.00;;;;;;;;;;5092304;28;20210;-64
2022/08/03 05:45:59;;;;;;;0.00;0.00;;;;;;;;;;5081036;28;20304;-65
2022/08/03 05:48:26;;;;;;;0.08;0.08;;;;;;;;;;5093237;28;20209;-66
2022/08/03 05:50:52;;;;;;;0.00;0.00;;;;;;;;;;5080125;28;20249;-65
2022/08/03 05:53:18;;;;;;;0.00;0.00;;;;;;;;;;5094046;28;20210;-65
2022/08/03 05:55:45;;;;;;;0.00;0.00;;;;;;;;;;5079503;28;20325;-65
2022/08/03 05:58:11;;;;;;;0.00;0.00;;;;;;;;;;5094890;28;20280;-64
2022/08/03 06:00:40;;;;;;;0.00;0.00;;;;;;;;;;5077550;28;20242;-65
2022/08/03 06:03:08;;;;;;;0.00;0.00;;;;;;;;;;5095783;28;20213;-66
2022/08/03 06:05:35;;;;;;;0.00;0.00;;;;;;;;;;5077645;28;20268;-65
2022/08/03 06:08:01;;;;;;;0.00;0.00;;;;;;;;;;5095887;28;20195;-65
2022/08/03 06:10:28;;;;;;;0.00;0.00;;;;;;;;;;5076783;28;20301;-66
2022/08/03 06:12:54;;;;;;;0.10;0.10;;;;;;;;;;5096811;28;20213;-67
2022/08/03 06:15:21;;;;;;;0.00;0.00;;;;;;;;;;5075832;28;20203;-63
2022/08/03 06:17:48;;;;;;;0.00;0.00;;;;;;;;;;5097603;28;20194;-67
2022/08/03 06:20:17;;;;;;;0.00;0.00;;;;;;;;;;5074672;28;20539;-66
2022/08/03 06:22:43;;;;;;;0.00;0.00;;;;;;;;;;5097718;28;20263;-64
2022/08/03 06:25:10;;;;;;;0.10;0.10;;;;;;;;;;5073813;28;20230;-65
2022/08/03 06:27:38;;;;;;;0.00;0.00;;;;;;;;;;5098965;28;20335;-66
2022/08/03 06:30:06;;;;;;;0.00;0.00;;;;;;;;;;5082489;28;20209;-64
2022/08/03 06:32:32;;;;;;;0.00;0.00;;;;;;;;;;5071790;28;20207;-65
2022/08/03 06:34:59;;;;;;;0.00;0.00;;;;;;;;;;5083490;28;20261;-65
2022/08/03 06:37:27;;;;;;;0.00;0.00;;;;;;;;;;5088685;28;20643;-64
2022/08/03 06:39:54;;;;;;;0.00;0.00;;;;;;;;;;5083133;28;20238;-65
2022/08/03 06:42:20;;;;;;;0.00;0.00;;;;;;;;;;5088645;28;20410;-65
2022/08/03 06:44:47;;;;;;;0.00;0.00;;;;;;;;;;5083490;28;20509;-65
2022/08/03 06:47:13;;;;;;;0.00;0.00;;;;;;;;;;5088449;28;20234;-68
2022/08/03 06:49:40;;;;;;;0.00;0.00;;;;;;;;;;5082809;28;20298;-66
2022/08/03 06:52:06;;;;;;;0.00;0.00;;;;;;;;;;5088356;28;20234;-66
2022/08/03 06:54:34;;;;;;;0.03;0.03;;;;;;;;;;5082939;28;20274;-65
2022/08/03 06:57:01;;;;;;;0.00;0.00;;;;;;;;;;5087655;28;20248;-65
2022/08/03 06:59:27;;;;;;;0.00;0.00;;;;;;;;;;5084028;28;20230;-66
2022/08/03 07:01:53;;;;;;;0.00;0.00;;;;;;;;;;5086566;28;20250;-66
2022/08/03 07:04:20;;;;;;;0.00;0.00;;;;;;;;;;5084474;28;20294;-64
2022/08/03 07:06:46;;;;;;;0.00;0.00;;;;;;;;;;5085896;28;20242;-65
2022/08/03 07:09:12;;;;;;;0.00;0.00;;;;;;;;;;5085502;28;20424;-65
2022/08/03 07:11:40;;;;;;;0.00;0.00;;;;;;;;;;5084838;28;20590;-66
2022/08/03 07:14:06;;;;;;;0.00;0.00;;;;;;;;;;5086345;28;20450;-65
2022/08/03 07:16:33;;;;;;;0.00;0.00;;;;;;;;;;5084232;28;20475;-65
2022/08/03 07:18:59;;;;;;;0.00;0.00;;;;;;;;;;5087052;28;20233;-65
2022/08/03 07:21:25;;;;;;;0.00;0.00;;;;;;;;;;5082866;28;20305;-65
2022/08/03 07:23:53;;;;;;;0.00;0.00;;;;;;;;;;5087993;28;20274;-66
2022/08/03 07:26:19;;;;;;;0.00;0.00;;;;;;;;;;5082166;28;20298;-68
2022/08/03 07:28:47;;;;;;;0.00;0.00;;;;;;;;;;5088837;28;20272;-68
2022/08/03 07:31:13;;;;;;;0.00;0.00;;;;;;;;;;5081593;28;20314;-69
2022/08/03 07:33:42;;;;;;;0.00;0.00;;;;;;;;;;5089464;28;20210;-69
2022/08/03 07:36:08;;;;;;;0.00;0.00;;;;;;;;;;5080569;28;20238;-69
2022/08/03 07:38:35;;;;;;;0.00;0.00;;;;;;;;;;5090306;28;20270;-69
2022/08/03 07:41:01;;;;;;;0.00;0.00;;;;;;;;;;5079550;28;20250;-70
2022/08/03 07:43:28;;;;;;;0.00;0.00;;;;;;;;;;5090631;28;20390;-68
2022/08/03 07:45:56;;;;;;;0.00;0.00;;;;;;;;;;5078713;28;20486;-69
2022/08/03 07:48:22;;;;;;;0.00;0.00;;;;;;;;;;5091837;28;20502;-70
2022/08/03 07:50:49;;;;;;;0.00;0.00;;;;;;;;;;5078336;28;20260;-69
2022/08/03 07:53:16;;;;;;;0.00;0.00;;;;;;;;;;5092510;28;20550;-67
2022/08/03 07:55:42;;;;;;;0.00;0.00;;;;;;;;;;5076586;28;20245;-68
2022/08/03 07:58:11;;;;;;;0.00;0.00;;;;;;;;;;5093263;28;20215;-69
2022/08/03 08:00:38;;;;;;;0.00;0.00;;;;;;;;;;5076324;28;20258;-68
2022/08/03 08:03:06;;;;;;;0.00;0.00;;;;;;;;;;5093805;28;20198;-68
2022/08/03 08:05:32;;;;;;;0.00;0.00;;;;;;;;;;5076099;28;20238;-69
2022/08/03 08:07:59;;;;;;;0.00;0.00;;;;;;;;;;5094283;28;20195;-68
2022/08/03 08:10:25;;;;;;;0.00;0.00;;;;;;;;;;5074419;28;20199;-69
2022/08/03 08:12:52;;;;;;;0.00;0.00;;;;;;;;;;5095993;28;20384;-67
2022/08/03 08:15:18;;;;;;;0.00;0.00;;;;;;;;;;5074148;28;20511;-68
2022/08/03 08:17:45;;;;;;;0.00;0.00;;;;;;;;;;5096267;28;20293;-68
2022/08/03 08:20:16;;;;;;;0.00;0.00;;;;;;;;;;5072936;28;20249;-68
2022/08/03 08:22:42;;;;;;;0.00;0.00;;;;;;;;;;5096440;28;20476;-68
2022/08/03 08:25:09;;;;;;;0.00;0.00;;;;;;;;;;5072748;28;20204;-68
2022/08/03 08:27:40;;;;;;;0.00;0.00;;;;;;;;;;5097100;28;20223;-68
2022/08/03 08:30:07;;;;;;;0.00;0.00;;;;;;;;;;5072004;28;20211;-69
2022/08/03 08:32:36;;;;;;;0.00;0.00;;;;;;;;;;5097328;28;20223;-69
2022/08/03 08:35:02;;;;;;;0.00;0.00;;;;;;;;;;5081962;28;20290;-69
2022/08/03 08:37:30;;;;;;;0.00;0.00;;;;;;;;;;5087427;28;20609;-68
2022/08/03 08:39:56;;;;;;;0.00;0.00;;;;;;;;;;5082115;28;20273;-68
2022/08/03 08:42:23;;;;;;;0.00;0.00;;;;;;;;;;5087257;28;20260;-68
2022/08/03 08:44:49;;;;;;;0.00;0.00;;;;;;;;;;5081775;28;20252;-68
2022/08/03 08:47:17;;;;;;;0.00;0.00;;;;;;;;;;5087163;28;20272;-68
2022/08/03 08:49:43;;;;;;;0.00;0.00;;;;;;;;;;5081648;28;20270;-69
2022/08/03 08:52:11;;;;;;;0.00;0.00;;;;;;;;;;5087201;28;20246;-68
2022/08/03 08:54:41;;;;;;;0.00;0.00;;;;;;;;;;5084015;28;20234;-67
2022/08/03 08:57:09;;;;;;;0.05;0.05;;;;;;;;;;5090972;28;20245;-67
2022/08/03 08:59:35;;;;;;;0.00;0.00;;;;;;;;;;5085509;28;20227;-68
2022/08/03 09:02:02;;;;;;;0.00;0.00;;;;;;;;;;5090422;28;20612;-67
2022/08/03 09:04:28;;;;;;;0.00;0.00;;;;;;;;;;5085475;28;20274;-67
2022/08/03 09:06:55;;;;;;;0.00;0.00;;;;;;;;;;5089482;28;20289;-68
2022/08/03 09:09:21;;;;;;;0.00;0.00;;;;;;;;;;5086541;28;20242;-68
2022/08/03 09:11:49;;;;;;;0.00;0.00;;;;;;;;;;5088142;28;20242;-67
2022/08/03 09:14:15;;;;;;;0.00;0.00;;;;;;;;;;5086968;28;20203;-68
2022/08/03 09:16:55;;;;;;;0.00;0.00;;;;;;;;;;5087591;28;20471;-68
2022/08/03 09:19:21;;;;;;;0.00;0.00;;;;;;;;;;5086091;28;20274;-67
2022/08/03 09:22:06;;;;;;;0.00;0.00;;;;;;;;;;5088201;28;20588;-68
2022/08/03 09:24:33;;;;;;;0.00;0.00;;;;;;;;;;5085216;28;20270;-67
2022/08/03 09:27:01;;;;;;;0.00;0.00;;;;;;;;;;5089759;28;20321;-67
2022/08/03 09:29:31;;;;;;;0.00;0.00;;;;;;;;;;5085631;28;20409;-68
2022/08/03 09:32:00;;;;;;;0.00;0.00;;;;;;;;;;5089229;28;20273;-67
2022/08/03 09:34:27;;;;;;;0.00;0.00;;;;;;;;;;5085211;28;20567;-67
2022/08/03 09:36:54;;;;;;;0.00;0.00;;;;;;;;;;5088597;28;20450;-66
2022/08/03 09:39:52;;;;;;;0.00;0.00;;;;;;;;;;5086462;28;20238;-79
2022/08/03 09:42:22;;;;;;;0.00;0.00;;;;;;;;;;5083382;28;20239;-80
2022/08/03 09:44:57;;;;;;;0.00;0.00;;;;;;;;;;5084817;28;20199;-80
2022/08/03 09:47:28;;;;;;;0.00;0.00;;;;;;;;;;5089796;28;20261;-80
2022/08/03 09:50:00;;;;;;;0.00;0.00;;;;;;;;;;5084228;28;20255;-78
2022/08/03 09:52:31;;;;;;;0.00;0.00;;;;;;;;;;5088234;28;20242;-78
2022/08/03 09:54:57;;;;;;;0.00;0.00;;;;;;;;;;5085087;28;20361;-77
2022/08/03 09:57:26;;;;;;;0.00;0.00;;;;;;;;;;5089516;28;20243;-79
2022/08/03 09:59:56;;;;;;;0.00;0.00;;;;;;;;;;5084648;28;20302;-78
2022/08/03 10:02:23;;;;;;;0.00;0.00;;;;;;;;;;5089360;28;20291;-79
2022/08/03 10:04:51;;;;;;;0.00;0.00;;;;;;;;;;5084198;28;20203;-78
2022/08/03 10:07:19;;;;;;;0.00;0.00;;;;;;;;;;5089272;28;20238;-79
2022/08/03 10:09:53;;;;;;;0.00;0.00;;;;;;;;;;5085083;28;20207;-80
2022/08/03 10:12:19;;;;;;;0.00;0.00;;;;;;;;;;5090130;28;20245;-80
2022/08/03 10:14:48;;;;;;;0.00;0.00;;;;;;;;;;5083579;28;20271;-77
2022/08/03 10:17:15;;;;;;;0.00;0.00;;;;;;;;;;5089170;28;20279;-80
2022/08/03 10:19:41;;;;;;;0.00;0.00;;;;;;;;;;5084569;28;20602;-80
2022/08/03 10:22:10;;;;;;;0.00;0.00;;;;;;;;;;5090286;28;20239;-79
2022/08/03 10:24:37;;;;;;;0.00;0.00;;;;;;;;;;5083862;28;20266;-80
2022/08/03 10:27:04;;;;;;;0.00;0.00;;;;;;;;;;5088733;28;20239;-79
2022/08/03 10:29:34;;;;;;;0.00;0.00;;;;;;;;;;5083439;28;20278;-80
2022/08/03 10:32:04;;;;;;;0.00;0.00;;;;;;;;;;5088169;28;20464;-79
2022/08/03 10:34:34;;;;;;;0.00;0.00;;;;;;;;;;5083655;28;20242;-80
2022/08/03 10:37:03;;;;;;;0.00;0.00;;;;;;;;;;5074891;28;20234;-80
2022/08/03 10:39:31;;;;;;;0.00;0.00;;;;;;;;;;5083866;28;20209;-80
2022/08/03 10:41:58;;;;;;;0.00;0.00;;;;;;;;;;5087347;28;20593;-80
2022/08/03 10:44:26;;;;;;;0.00;0.00;;;;;;;;;;5084270;28;20238;-80
2022/08/03 10:46:52;;;;;;;0.00;0.00;;;;;;;;;;5087684;28;20256;-81
2022/08/03 10:49:20;;;;;;;0.00;0.00;;;;;;;;;;5085748;28;20387;-81
2022/08/03 10:51:48;;;;;;;0.00;0.00;;;;;;;;;;5087564;28;20239;-81
2022/08/03 10:54:29;;;;;;;0.00;0.00;;;;;;;;;;5085198;28;20207;-81
2022/08/03 10:59:59;;;;;;;0.00;0.00;;;;;;;;;;5083262;28;20198;-80
2022/08/03 11:02:47;;;;;;;0.00;0.00;;;;;;;;;;5088244;28;20304;-80
2022/08/03 11:05:27;;;;;;;0.00;0.00;;;;;;;;;;5073868;28;20270;-80
2022/08/03 11:08:09;;;;;;;0.00;0.00;;;;;;;;;;5095400;28;20195;-79
2022/08/03 11:10:35;;;;;;;0.10;0.10;;;;;;;;;;5076310;28;20423;-79
2022/08/03 11:13:06;;;;;;;0.00;0.00;;;;;;;;;;5094758;28;20227;-79
2022/08/03 11:15:34;;;;;;;0.00;0.00;;;;;;;;;;5076294;28;20261;-78
2022/08/03 11:18:08;;;;;;;0.00;0.00;;;;;;;;;;5081152;28;20253;-78
2022/08/03 11:20:45;;;;;;;0.00;0.00;;;;;;;;;;5076052;28;20276;-78
2022/08/03 11:23:11;;;;;;;0.00;0.00;;;;;;;;;;5093032;28;20191;-78
2022/08/03 11:25:52;;;;;;;0.00;0.00;;;;;;;;;;5077196;28;20242;-79
2022/08/03 11:28:26;;;;;;;0.00;0.00;;;;;;;;;;5092093;28;20219;-77
2022/08/03 11:30:52;;;;;;;0.00;0.00;;;;;;;;;;5078775;28;20281;-79
2022/08/03 11:33:29;;;;;;;0.00;0.00;;;;;;;;;;5092379;28;20229;-80
2022/08/03 11:36:00;;;;;;;0.00;0.00;;;;;;;;;;5079291;28;20245;-79
2022/08/03 11:38:26;;;;;;;0.00;0.00;;;;;;;;;;5091725;28;20352;-80
2022/08/03 11:40:55;;;;;;;0.00;0.00;;;;;;;;;;5078552;28;20261;-78
2022/08/03 11:43:44;;;;;;;0.00;0.00;;;;;;;;;;5091421;28;20243;-82
2022/08/03 11:46:15;;;;;;;0.00;0.00;;;;;;;;;;5081008;28;20249;-79
2022/08/03 11:48:43;;;;;;;0.00;0.00;;;;;;;;;;5089883;28;20207;-79
2022/08/03 11:51:20;;;;;;;0.00;0.00;;;;;;;;;;5081671;28;20238;-80
2022/08/03 11:53:47;;;;;;;0.00;0.00;;;;;;;;;;5088262;28;20264;-78
2022/08/03 11:56:13;;;;;;;0.00;0.00;;;;;;;;;;5080894;28;20300;-80
2022/08/03 11:58:46;;;;;;;0.00;0.00;;;;;;;;;;5089150;28;20211;-80
2022/08/03 12:01:15;;;;;;;0.00;0.00;;;;;;;;;;5080509;28;20238;-81
2022/08/03 12:03:42;;;;;;;0.00;0.00;;;;;;;;;;5089025;28;20515;-82
2022/08/03 12:06:09;;;;;;;0.00;0.00;;;;;;;;;;5080413;28;20492;-80
2022/08/03 12:08:37;;;;;;;0.00;0.00;;;;;;;;;;5089332;28;20207;-79
2022/08/03 12:11:05;;;;;;;0.00;0.00;;;;;;;;;;5079655;28;20291;-78
2022/08/03 12:13:39;;;;;;;0.00;0.00;;;;;;;;;;5089864;28;20200;-81
2022/08/03 12:16:05;;;;;;;0.00;0.00;;;;;;;;;;5079935;28;20350;-79
2022/08/03 12:18:32;;;;;;;0.00;0.00;;;;;;;;;;5089868;28;20211;-80
2022/08/03 12:21:04;;;;;;;0.00;0.00;;;;;;;;;;5074821;28;20254;-79
2022/08/03 12:23:30;;;;;;;0.00;0.00;;;;;;;;;;5091045;28;20204;-79
2022/08/03 12:26:02;;;;;;;0.00;0.00;;;;;;;;;;5078261;28;20243;-81
2022/08/03 12:28:29;;;;;;;0.00;0.00;;;;;;;;;;5091265;28;20240;-81
2022/08/03 12:31:00;;;;;;;0.00;0.00;;;;;;;;;;5082430;28;20246;-81
2022/08/03 12:33:27;;;;;;;0.00;0.00;;;;;;;;;;5093884;28;20203;-80
2022/08/03 12:36:04;;;;;;;0.00;0.00;;;;;;;;;;5082031;28;20250;-78
2022/08/03 12:38:31;;;;;;;0.00;0.00;;;;;;;;;;5093438;28;20234;-78
2022/08/03 12:41:03;;;;;;;0.00;0.00;;;;;;;;;;5081942;28;20297;-79
2022/08/03 12:43:30;;;;;;;0.00;0.00;;;;;;;;;;5093431;28;20246;-79
2022/08/03 12:46:13;;;;;;;0.00;0.00;;;;;;;;;;5082144;28;20455;-78
2022/08/03 12:48:58;;;;;;;0.05;0.05;;;;;;;;;;5092301;28;20274;-80
2022/08/03 12:51:26;;;;;;;0.00;0.00;;;;;;;;;;5085774;28;20241;-77
2022/08/03 12:53:52;;;;;;;0.00;0.00;;;;;;;;;;5090148;28;20435;-78
2022/08/03 12:56:20;;;;;;;0.00;0.00;;;;;;;;;;5083915;28;20242;-81
2022/08/03 12:58:49;;;;;;;0.00;0.00;;;;;;;;;;5091645;28;20210;-79
2022/08/03 13:01:15;;;;;;;0.00;0.00;;;;;;;;;;5084179;28;20298;-81
2022/08/03 13:03:42;;;;;;;0.00;0.00;;;;;;;;;;5091391;28;20211;-78
2022/08/03 13:06:13;;;;;;;0.00;0.00;;;;;;;;;;5083521;28;20480;-79
2022/08/03 13:08:39;;;;;;;0.00;0.00;;;;;;;;;;5091632;28;20256;-78
2022/08/03 13:11:17;;;;;;;0.00;0.00;;;;;;;;;;5081571;28;20306;-78
2022/08/03 13:13:45;;;;;;;0.00;0.00;;;;;;;;;;5091846;28;20265;-80
2022/08/03 13:16:12;;;;;;;0.00;0.00;;;;;;;;;;5083540;28;20246;-78
2022/08/03 13:18:38;;;;;;;0.00;0.00;;;;;;;;;;5092101;28;20210;-78
2022/08/03 13:21:05;;;;;;;0.00;0.00;;;;;;;;;;5082485;28;20238;-78
2022/08/03 13:23:32;;;;;;;0.00;0.00;;;;;;;;;;5092491;28;20203;-77
2022/08/03 13:25:58;;;;;;;0.00;0.00;;;;;;;;;;5081907;28;20238;-78
2022/08/03 13:28:24;;;;;;;0.00;0.00;;;;;;;;;;5093429;28;20391;-83
2022/08/03 13:30:53;;;;;;;0.00;0.00;;;;;;;;;;5080521;28;20239;-80
2022/08/03 13:33:20;;;;;;;0.00;0.00;;;;;;;;;;5094203;28;20399;-78
2022/08/03 13:35:46;;;;;;;0.00;0.00;;;;;;;;;;5080041;28;20268;-79
2022/08/03 13:41:32;;;;;;;0.00;0.00;;;;;;;;;;4965908;28;20240;-79
2022/08/03 13:44:15;;;;;;;0.00;0.00;;;;;;;;;;4945501;29;20473;-81
2022/08/03 13:46:43;;;;;;;0.00;0.00;;;;;;;;;;4969169;28;20253;-78
2022/08/03 13:49:10;;;;;;;0.00;0.00;;;;;;;;;;5002729;28;20449;-79
2022/08/03 13:51:36;;;;;;;0.00;0.00;;;;;;;;;;4969543;28;20487;-78
2022/08/03 13:54:08;;;;;;;0.10;0.10;;;;;;;;;;4963918;29;20215;-79
2022/08/03 13:56:39;;;;;;;0.00;0.00;;;;;;;;;;4942411;29;20247;-79
2022/08/03 13:59:09;;;;;;;0.00;0.00;;;;;;;;;;4959927;29;20227;-78
2022/08/03 14:01:55;;;;;;;0.00;0.00;;;;;;;;;;4929678;29;20284;-79
2022/08/03 14:04:40;;;;;;;0.00;0.00;;;;;;;;;;4925039;29;20209;-77
2022/08/03 14:07:08;;;;;;;0.00;0.00;;;;;;;;;;4953005;28;20294;-76
2022/08/03 14:09:38;;;;;;;0.00;0.00;;;;;;;;;;5002037;28;20525;-77
2022/08/03 14:12:12;;;;;;;0.00;0.00;;;;;;;;;;4931227;28;20241;-80
2022/08/03 14:17:31;;;;;;;0.00;0.00;;;;;;;;;;4946013;29;20246;-79
2022/08/03 14:20:03;;;;;;;0.00;0.00;;;;;;;;;;4963138;29;20414;-77
2022/08/03 14:27:20;;;;;;;0.00;0.00;;;;;;;;;;4948651;28;20305;-76
2022/08/03 14:29:47;;;;;;;0.00;0.00;;;;;;;;;;4982402;28;20462;-79
2022/08/03 14:32:13;;;;;;;0.00;0.00;;;;;;;;;;4968451;28;20249;-77
2022/08/03 14:34:40;;;;;;;0.00;0.00;;;;;;;;;;4982246;28;20210;-76
2022/08/03 14:37:08;;;;;;;0.00;0.00;;;;;;;;;;4971631;28;20258;-78
2022/08/03 14:39:34;;;;;;;0.00;0.00;;;;;;;;;;4999775;28;20216;-78
2022/08/03 14:42:01;;;;;;;0.00;0.00;;;;;;;;;;5033828;28;20231;-78
2022/08/03 14:44:29;;;;;;;0.00;0.00;;;;;;;;;;5080733;28;20215;-78
2022/08/03 14:46:58;;;;;;;0.00;0.00;;;;;;;;;;5040348;28;20356;-80
2022/08/03 14:49:25;;;;;;;0.00;0.00;;;;;;;;;;5040994;28;20231;-81
2022/08/03 14:51:51;;;;;;;0.00;0.00;;;;;;;;;;4987042;28;20244;-78
2022/08/03 14:54:20;;;;;;;0.00;0.00;;;;;;;;;;4997236;28;20206;-80
2022/08/03 14:56:47;;;;;;;0.00;0.00;;;;;;;;;;4964205;28;20255;-80
2022/08/03 14:59:13;;;;;;;0.00;0.00;;;;;;;;;;4962765;29;20247;-79
2022/08/03 15:01:40;;;;;;;0.00;0.00;;;;;;;;;;4952675;29;20250;-77
2022/08/03 15:04:06;;;;;;;0.00;0.00;;;;;;;;;;4962524;29;20247;-80
2022/08/03 15:06:33;;;;;;;0.00;0.00;;;;;;;;;;4952986;29;20255;-79
2022/08/03 15:09:11;;;;;;;0.00;0.00;;;;;;;;;;4962435;29;20218;-78
2022/08/03 15:11:42;;;;;;;0.00;0.00;;;;;;;;;;4935089;29;20292;-78